Flight Track Log - Related Links

Times and Time Zones

All times are in EDT time to prevent confusion due to time zone crossing. See the N137TK flight status page for this flight to view local times or setup timezone preferences in your user account.


Time Position Orientation Groundspeed Altitude Reporting Facility
EDT Latitude Longitude Course Direction KTS MPH feet Rate Location/Type
Wed 09:01:58 AM 39.7000 -75.6000 293° West 157 181 800  Level Philadelphia TRACON
Wed 09:03:10 AM 39.7167 -75.6500 293° West 213 245 2,200 1,471 Climbing Philadelphia TRACON
Wed 09:03:40 AM 39.7233 -75.6858 284° West 209 241 3,300 2,000 Climbing New York Center
Wed 09:04:40 AM 39.7511 -75.7203 316° Northwest 189 217 5,200 2,017 Climbing New York Center
Wed 09:05:39 AM 39.7778 -75.7789 301° West 172 198 7,300 1,835 Climbing New York Center
Wed 09:06:41 AM 39.7961 -75.8369 292° West 179 206 8,900 1,659 Climbing New York Center
Wed 09:07:42 AM 39.8186 -75.8981 296° West 184 212 10,700 1,537 Climbing New York Center
Wed 09:08:42 AM 39.8406 -75.9672 292° West 198 228 12,000 1,714 Climbing New York Center
Wed 09:09:41 AM 39.8644 -76.0419 293° West 203 234 14,100 1,916 Climbing New York Center
Wed 09:10:41 AM 39.8844 -76.1086 291° West 198 228 15,800 1,537 Climbing New York Center
Wed 09:11:42 AM 39.9042 -76.1750 291° West 198 228 17,200 1,160 Climbing New York Center
Wed 09:12:40 AM 39.9114 -76.2458 278° West 198 228 18,100 864 Climbing New York Center
Wed 09:13:40 AM 39.9133 -76.3353 272° West 231 266 18,900 1,190 Climbing New York Center
Wed 09:14:41 AM 39.9139 -76.4111 271° West 234 269 20,500 1,513 Climbing New York Center
Wed 09:15:39 AM 39.9189 -76.4847 275° West 223 257 21,900 1,311 Climbing New York Center
Wed 09:16:40 AM 39.9217 -76.5553 273° West 211 243 23,100 1,091 Climbing New York Center
Wed 09:17:40 AM 39.9244 -76.6261 273° West 205 236 24,100 992 Climbing New York Center
Wed 09:18:41 AM 39.9250 -76.6992 271° West 205 236 25,100 731 Climbing New York Center
Wed 09:20:16 AM 39.8806 -76.8028 241° Southwest 204 235 26,000 348 Climbing Washington Center
Wed 09:21:16 AM 39.8400 -76.8858 238° Southwest 224 258 26,000  Level Washington Center
Wed 09:22:14 AM 39.8017 -76.9689 239° Southwest 259 298 26,000  Level Washington Center
Wed 09:23:14 AM 39.7631 -77.0572 240° Southwest 279 321 26,000  Level Washington Center
Wed 09:24:16 AM 39.7203 -77.1453 238° Southwest 285 328 26,000  Level Washington Center
Wed 09:25:16 AM 39.6797 -77.2308 238° Southwest 285 328 26,000  Level Washington Center
Wed 09:26:14 AM 39.6389 -77.3189 239° Southwest 285 328 26,000  Level Washington Center
Wed 09:27:14 AM 39.5958 -77.4039 237° Southwest 290 334 26,000  Level Washington Center
Wed 09:28:16 AM 39.5550 -77.4917 239° Southwest 290 334 26,000  Level Washington Center
Wed 09:29:16 AM 39.5119 -77.5794 238° Southwest 290 334 26,000  Level Washington Center
Wed 09:30:14 AM 39.4728 -77.6669 240° Southwest 290 334 26,000  Level Washington Center
Wed 09:31:14 AM 39.4317 -77.7519 238° Southwest 290 334 26,000  Level Washington Center
Wed 09:32:15 AM 39.3928 -77.8314 238° Southwest 290 334 26,000  Level Washington Center
Wed 09:33:16 AM 39.3556 -77.9214 242° Southwest 290 334 26,000  Level Washington Center
Wed 09:34:16 AM 39.3206 -78.0114 243° Southwest 285 328 26,000  Level Washington Center
Wed 09:35:15 AM 39.2853 -78.1014 243° Southwest 285 328 26,000  Level Washington Center
Wed 09:36:15 AM 39.2458 -78.1992 243° Southwest 280 322 26,000  Level Washington Center
Wed 09:37:16 AM 39.2125 -78.2892 244° Southwest 268 308 26,000  Level Washington Center
Wed 09:38:16 AM 39.1750 -78.3761 241° Southwest 273 314 26,000  Level Washington Center
Wed 09:39:14 AM 39.1464 -78.4500 243° Southwest 280 322 26,000  Level Washington Center
Wed 09:40:14 AM 39.1042 -78.5553 243° Southwest 280 322 26,000  Level Washington Center
Wed 09:41:14 AM 39.0686 -78.6447 243° Southwest 280 322 26,000  Level Washington Center
Wed 09:42:15 AM 39.0308 -78.7342 241° Southwest 280 322 26,000  Level Washington Center
Wed 09:43:15 AM 38.9950 -78.8233 243° Southwest 280 322 26,000  Level Washington Center
Wed 09:44:14 AM 38.9592 -78.9125 243° Southwest 280 322 26,000  Level Washington Center
Wed 09:45:14 AM 38.9214 -79.0042 242° Southwest 280 322 26,000  Level Washington Center
Wed 09:46:15 AM 38.8853 -79.0958 243° Southwest 286 329 26,000  Level Washington Center
Wed 09:47:15 AM 38.8453 -79.1847 240° Southwest 286 329 26,000  Level Washington Center
Wed 09:48:16 AM 38.8256 -79.2822 255° West 286 329 26,000  Level Washington Center
Wed 09:49:16 AM 38.8100 -79.3800 258° West 281 323 26,000  Level Washington Center
Wed 09:50:14 AM 38.7969 -79.4594 258° West 287 330 26,000  Level Washington Center
Wed 09:51:15 AM 38.7744 -79.5725 256° West 289 333 26,000  Level Washington Center
Wed 09:52:15 AM 38.7564 -79.6808 258° West 294 338 26,000  Level Washington Center
Wed 09:53:15 AM 38.7383 -79.7783 257° West 294 338 26,000  Level Washington Center
Wed 09:54:16 AM 38.7203 -79.8758 257° West 294 338 26,000  Level Washington Center
Wed 09:56:35 AM 38.6769 -80.0919 256° West 281 323 26,000  Level Indianapolis Center
Wed 09:57:37 AM 38.6583 -80.1897 256° West 283 326 26,000  Level Indianapolis Center
Wed 09:58:39 AM 38.6411 -80.2861 257° West 278 320 26,000  Level Indianapolis Center
Wed 09:59:41 AM 38.6219 -80.3828 256° West 280 322 26,000  Level Indianapolis Center
Wed 10:00:43 AM 38.6050 -80.4808 258° West 283 326 26,000  Level Indianapolis Center
Wed 10:01:45 AM 38.5819 -80.5967 256° West 280 322 26,000  Level Indianapolis Center
Wed 10:02:47 AM 38.5631 -80.6933 256° West 280 322 26,000  Level Indianapolis Center
Wed 10:03:49 AM 38.5447 -80.7911 257° West 282 325 26,000  Level Indianapolis Center
Wed 10:04:51 AM 38.5247 -80.8872 255° West 280 322 26,000  Level Indianapolis Center
Wed 10:05:53 AM 38.5061 -80.9836 256° West 280 322 26,000  Level Indianapolis Center
Wed 10:06:55 AM 38.4875 -81.0792 256° West 277 319 26,000  Level Indianapolis Center
Wed 10:07:57 AM 38.4689 -81.1744 256° West 276 318 26,000  Level Indianapolis Center
Wed 10:08:59 AM 38.4497 -81.2694 256° West 276 318 26,000  Level Indianapolis Center
Wed 10:10:01 AM 38.4267 -81.3844 256° West 277 319 26,000  Level Indianapolis Center
Wed 10:11:03 AM 38.4158 -81.4828 262° West 277 319 26,000  Level Indianapolis Center
Wed 10:12:05 AM 38.4075 -81.5822 264° West 280 322 26,000  Level Indianapolis Center
Wed 10:13:07 AM 38.3997 -81.6814 264° West 280 322 26,000  Level Indianapolis Center
Wed 10:14:09 AM 38.3919 -81.7814 264° West 282 325 26,000  Level Indianapolis Center
Wed 10:15:11 AM 38.3853 -81.8808 265° West 279 321 26,000  Level Indianapolis Center
Wed 10:16:13 AM 38.3783 -81.9800 265° West 280 322 26,000  Level Indianapolis Center
Wed 10:17:15 AM 38.3700 -82.0792 264° West 282 325 26,000  Level Indianapolis Center
Wed 10:18:17 AM 38.3325 -82.1850 246° West 275 316 26,000  Level Indianapolis Center
Wed 10:19:19 AM 38.3028 -82.2750 247° West 275 316 26,000  Level Indianapolis Center
Wed 10:20:21 AM 38.2725 -82.3669 247° West 278 320 26,000  Level Indianapolis Center
Wed 10:21:23 AM 38.2428 -82.4567 247° West 277 319 26,000  Level Indianapolis Center
Wed 10:22:25 AM 38.2114 -82.5489 247° West 275 316 26,000  Level Indianapolis Center
Wed 10:23:28 AM 38.1819 -82.6400 248° West 277 319 26,000  Level Indianapolis Center
Wed 10:24:30 AM 38.1467 -82.7442 247° West 276 318 26,000  Level Indianapolis Center
Wed 10:25:32 AM 38.1147 -82.8328 245° Southwest 277 319 26,000  Level Indianapolis Center
Wed 10:26:34 AM 38.0847 -82.9239 247° West 279 321 26,000  Level Indianapolis Center
Wed 10:27:36 AM 38.0544 -83.0114 246° West 273 314 26,000  Level Indianapolis Center
Wed 10:28:38 AM 38.0236 -83.1000 246° West 275 316 26,000  Level Indianapolis Center
Wed 10:29:40 AM 37.9881 -83.2022 246° West 272 313 26,000  Level Indianapolis Center
Wed 10:30:42 AM 37.9589 -83.2894 247° West 269 310 26,000  Level Indianapolis Center
Wed 10:31:44 AM 37.9281 -83.3769 246° West 271 312 26,000  Level Indianapolis Center
Wed 10:32:46 AM 37.8981 -83.4631 246° West 268 308 26,000  Level Indianapolis Center
Wed 10:33:48 AM 37.8675 -83.5511 246° West 271 312 26,000  Level Indianapolis Center
Wed 10:34:50 AM 37.8322 -83.6508 246° West 266 306 26,000  Level Indianapolis Center
Wed 10:35:52 AM 37.8022 -83.7386 247° West 270 311 26,000  Level Indianapolis Center
Wed 10:36:54 AM 37.7714 -83.8250 246° West 271 312 26,000  Level Indianapolis Center
Wed 10:37:56 AM 37.7406 -83.9111 246° West 270 311 26,000  Level Indianapolis Center
Wed 10:38:58 AM 37.7100 -83.9986 246° West 273 314 26,000  Level Indianapolis Center
Wed 10:40:00 AM 37.6792 -84.0853 246° West 271 312 26,000  Level Indianapolis Center
Wed 10:41:02 AM 37.6344 -84.1758 238° Southwest 263 303 26,000  Level Indianapolis Center
Wed 10:42:04 AM 37.5747 -84.2333 217° Southwest 267 307 26,000  Level Indianapolis Center
Wed 10:43:06 AM 37.5161 -84.2894 217° Southwest 265 305 26,000  Level Indianapolis Center
Wed 10:44:08 AM 37.4575 -84.3447 217° Southwest 263 303 26,000  Level Indianapolis Center
Wed 10:45:10 AM 37.3983 -84.4008 217° Southwest 266 306 26,000  Level Indianapolis Center
Wed 10:46:12 AM 37.3314 -84.4656 218° Southwest 261 300 26,000  Level Indianapolis Center
Wed 10:47:14 AM 37.2728 -84.5211 217° Southwest 264 304 26,000  Level Indianapolis Center
Wed 10:48:16 AM 37.2139 -84.5778 217° Southwest 264 304 26,000  Level Indianapolis Center
Wed 10:49:18 AM 37.1544 -84.6328 216° Southwest 265 305 26,000  Level Indianapolis Center
Wed 10:50:20 AM 37.0961 -84.6894 218° Southwest 265 305 26,000 -98 Level Indianapolis Center
Wed 10:51:21 AM 37.0500 -84.7603 231° Southwest 271 312 25,800 -683 Descending Indianapolis Center
Wed 10:52:23 AM 37.0019 -84.8614 239° Southwest 289 333 24,600 -1,065 Descending Indianapolis Center
Wed 10:53:25 AM 36.9597 -84.9539 240° Southwest 302 348 23,600 -1,065 Descending Indianapolis Center
Wed 10:54:27 AM 36.9164 -85.0464 240° Southwest 309 356 22,400 -1,161 Descending Indianapolis Center
Wed 10:55:29 AM 36.8731 -85.1394 240° Southwest 311 358 21,200 -1,161 Descending Indianapolis Center
Wed 10:56:31 AM 36.8269 -85.2350 239° Southwest 319 367 20,000 -1,113 Descending Indianapolis Center
Wed 10:57:33 AM 36.7728 -85.3197 231° Southwest 317 365 18,900 -1,073 Descending Indianapolis Center
Wed 10:58:34 AM 36.7094 -85.4200 232° Southwest 309 356 17,800 -1,171 Descending Indianapolis Center
Wed 10:59:36 AM 36.6583 -85.5025 232° Southwest 302 348 16,500 -1,306 Descending Indianapolis Center
Wed 11:00:38 AM 36.6056 -85.5839 231° Southwest 302 348 15,100 -1,538 Descending Indianapolis Center
Wed 11:01:33 AM 36.5533 -85.6633 231° Southwest 306 352 13,500 -1,670 Descending Memphis Center
Wed 11:02:33 AM 36.5042 -85.7411 232° Southwest 306 352 11,900 -1,650 Descending Memphis Center
Wed 11:03:33 AM 36.4550 -85.8239 234° Southwest 306 352 10,200 -1,600 Descending Memphis Center
Wed 11:04:33 AM 36.4058 -85.9014 232° Southwest 306 352 8,700 -1,100 Descending Memphis Center
Wed 11:05:33 AM 36.3564 -85.9789 232° Southwest 299 344 8,000 -350 Descending Memphis Center
Wed 11:06:33 AM 36.3108 -86.0483 231° Southwest 278 320 8,000 -50 Level Memphis Center
Wed 11:07:33 AM 36.2656 -86.1203 232° Southwest 273 314 7,900 -500 Descending Memphis Center
Wed 11:08:33 AM 36.2239 -86.1842 231° Southwest 273 314 7,000 -950 Descending Memphis Center
Wed 11:09:33 AM 36.1764 -86.2583 232° Southwest 273 314 6,000 -1,000 Descending Memphis Center
Wed 11:10:33 AM 36.1436 -86.3397 244° Southwest 273 314 5,000 -1,050 Descending Memphis Center
Wed 11:11:33 AM 36.1189 -86.4156 248° West 252 290 3,900 -1,000 Descending Memphis Center
Wed 11:12:33 AM 36.0981 -86.4858 250° West 231 266 3,000 -1,050 Descending Memphis Center
Wed 11:13:33 AM 36.0575 -86.5211 215° Southwest 164 189 1,800 -1,091 Descending Memphis Center
Wed 11:14:34 AM 36.0200 -86.5203 179° South 141 162 800 -496 Descending Memphis Center
Wed 11:15:34 AM 35.9875 -86.5500 217° Southwest 141 162 800 3,600 Level Memphis Center
Wed 11:16:34 AM 35.9506 -86.5697 203° Southwest 141 162 8,000 7,200 Climbing Memphis Center

Login

Don't have an account? Register now (free) for customized features, flight alerts, and more!